createdAt,value
2019-01-24T00:03:33.327Z,61.29
2019-01-24T00:07:17.999Z,61.52
2019-01-24T00:11:02.894Z,61.87
2019-01-24T00:14:47.487Z,62.20
2019-01-24T00:18:32.189Z,61.35
2019-01-24T00:22:16.835Z,60.89
2019-01-24T00:26:01.435Z,61.23
2019-01-24T00:29:38.671Z,62.48
2019-01-24T00:37:26.807Z,61.42
2019-01-24T00:41:11.426Z,62.68
2019-01-24T00:48:52.015Z,62.25
2019-01-24T00:52:36.626Z,63.73
2019-01-24T00:56:21.255Z,62.78
2019-01-24T01:00:46.753Z,62.09
2019-01-24T01:04:31.351Z,62.59
2019-01-24T01:15:38.492Z,62.76
2019-01-24T01:19:23.364Z,63.44
2019-01-24T01:23:08.014Z,62.87
2019-01-24T01:26:52.614Z,62.96
2019-01-24T01:30:29.471Z,62.82
2019-01-24T01:34:14.073Z,61.70
2019-01-24T01:37:59.028Z,61.44
2019-01-24T01:41:43.643Z,62.21
2019-01-24T01:45:28.267Z,61.63
2019-01-24T01:49:12.903Z,62.44
2019-01-24T01:52:58.958Z,62.61
2019-01-24T02:00:47.397Z,62.49
2019-01-24T02:04:31.984Z,62.14
2019-01-24T02:08:35.412Z,61.83
2019-01-24T02:12:20.057Z,62.92
2019-01-24T02:19:54.743Z,62.47
2019-01-24T02:23:39.328Z,62.09
2019-01-24T02:27:24.281Z,62.29
2019-01-24T02:31:01.206Z,62.36
2019-01-24T02:34:49.740Z,62.83
2019-01-24T02:38:32.439Z,62.50
2019-01-24T02:46:07.595Z,62.04
2019-01-24T02:49:52.235Z,61.86
2019-01-24T02:53:36.846Z,61.77
2019-01-24T02:57:21.465Z,62.48
2019-01-24T03:01:06.102Z,62.46
2019-01-24T03:04:56.685Z,61.75
2019-01-24T03:08:37.064Z,61.80
2019-01-24T03:12:21.705Z,62.06
2019-01-24T03:16:06.327Z,61.83
2019-01-24T03:19:50.963Z,62.60
2019-01-24T03:23:35.918Z,61.99
2019-01-24T03:27:20.543Z,61.34
2019-01-24T03:30:58.322Z,61.68
2019-01-24T03:34:42.955Z,62.32
2019-01-24T03:38:27.563Z,62.88
2019-01-24T03:42:12.208Z,62.90
2019-01-24T03:45:56.803Z,63.19
2019-01-24T03:49:41.435Z,63.51
2019-01-24T03:57:15.839Z,63.10
2019-01-24T04:01:00.459Z,62.93
2019-01-24T04:04:45.082Z,63.44
2019-01-24T04:08:30.446Z,64.01
2019-01-24T04:12:15.097Z,63.85
2019-01-24T04:16:00.085Z,63.37
2019-01-24T04:19:44.714Z,63.46
2019-01-24T04:23:29.308Z,64.17
2019-01-24T04:27:32.741Z,64.59
2019-01-24T04:31:09.757Z,64.28
2019-01-24T04:34:54.354Z,63.60
2019-01-24T04:38:39.011Z,63.12
2019-01-24T04:42:23.612Z,62.94
2019-01-24T04:46:08.236Z,63.48
2019-01-24T04:49:52.862Z,63.72
2019-01-24T04:53:37.482Z,62.75
2019-01-24T04:57:22.069Z,63.13
2019-01-24T05:01:06.972Z,63.66
2019-01-24T05:04:51.604Z,63.39
2019-01-24T05:08:36.242Z,62.72
2019-01-24T05:12:20.885Z,62.50
2019-01-24T05:16:05.501Z,63.56
2019-01-24T05:19:50.068Z,63.26
2019-01-24T05:23:34.715Z,63.21
2019-01-24T05:27:19.350Z,62.70
2019-01-24T05:30:56.586Z,63.27
2019-01-24T05:34:41.226Z,62.99
2019-01-24T05:38:25.852Z,63.06
2019-01-24T05:42:10.487Z,63.52
2019-01-24T05:45:55.124Z,62.19
2019-01-24T05:49:40.091Z,63.87
2019-01-24T05:53:24.715Z,64.04
2019-01-24T05:57:09.354Z,63.52
2019-01-24T06:00:54.054Z,63.74
2019-01-24T06:04:38.626Z,64.13
2019-01-24T06:08:23.283Z,63.13
2019-01-24T06:12:07.917Z,63.27
2019-01-24T06:15:52.546Z,63.19
2019-01-24T06:19:37.267Z,62.59
2019-01-24T06:23:21.910Z,61.81
2019-01-24T06:27:06.558Z,62.06
2019-01-24T06:30:43.804Z,63.21
2019-01-24T06:34:28.415Z,62.55
2019-01-24T06:38:13.403Z,61.23
2019-01-24T06:41:58.690Z,62.37
2019-01-24T06:45:43.267Z,62.44
2019-01-24T06:49:27.952Z,61.67
2019-01-24T06:53:12.611Z,61.96
2019-01-24T06:56:57.246Z,63.46
2019-01-24T07:00:41.880Z,63.27
2019-01-24T07:04:26.480Z,63.51
2019-01-24T07:08:11.127Z,62.32
2019-01-24T07:11:56.442Z,61.29
2019-01-24T07:15:41.521Z,60.97
2019-01-24T07:19:26.185Z,63.90
2019-01-24T07:23:11.025Z,63.20
2019-01-24T07:30:45.661Z,62.62
2019-01-24T07:34:22.520Z,62.96
2019-01-24T07:38:07.159Z,63.70
2019-01-24T07:41:51.795Z,62.89
2019-01-24T07:45:38.677Z,62.77
2019-01-24T07:49:23.318Z,62.03
2019-01-24T07:53:27.309Z,62.91
2019-01-24T07:57:11.930Z,62.58
2019-01-24T08:00:56.575Z,62.91
2019-01-24T08:04:41.521Z,62.21
2019-01-24T08:08:26.133Z,62.30
2019-01-24T08:12:10.759Z,62.28
2019-01-24T08:15:55.741Z,62.02
2019-01-24T08:19:40.405Z,62.14
2019-01-24T08:23:25.044Z,61.01
2019-01-24T08:27:09.759Z,62.31
2019-01-24T08:30:46.487Z,61.99
2019-01-24T08:34:31.140Z,63.14
2019-01-24T08:42:06.622Z,62.20
2019-01-24T08:45:51.256Z,61.31
2019-01-24T08:49:35.867Z,61.19
2019-01-24T08:53:20.506Z,61.69
2019-01-24T08:57:05.118Z,61.24
2019-01-24T09:00:49.732Z,60.75
2019-01-24T09:04:34.358Z,60.66
2019-01-24T09:08:18.981Z,60.57
2019-01-24T09:12:03.335Z,59.74
2019-01-24T09:15:47.979Z,60.47
2019-01-24T09:19:25.000Z,60.16
2019-01-24T09:23:09.636Z,60.20
2019-01-24T09:26:54.262Z,59.04
2019-01-24T09:30:38.885Z,60.98
2019-01-24T09:34:23.506Z,59.60
2019-01-24T09:38:08.160Z,60.73
2019-01-24T09:41:53.101Z,60.17
2019-01-24T09:45:39.058Z,60.16
2019-01-24T09:49:23.696Z,60.21
2019-01-24T09:53:08.606Z,60.40
2019-01-24T09:56:53.256Z,60.32
2019-01-24T10:00:22.093Z,59.36
2019-01-24T10:04:06.748Z,58.57
2019-01-24T10:07:51.395Z,59.88
2019-01-24T10:11:36.280Z,59.70
2019-01-24T10:19:31.513Z,59.79
2019-01-24T10:23:08.518Z,58.27
2019-01-24T10:26:53.177Z,60.36
2019-01-24T10:30:42.616Z,60.96
2019-01-24T10:38:14.682Z,62.23
2019-01-24T10:42:18.403Z,61.58
2019-01-24T10:46:02.998Z,61.30
2019-01-24T10:53:51.157Z,59.17
2019-01-24T10:57:36.093Z,60.55
2019-01-24T11:05:51.538Z,59.24
2019-01-24T11:09:36.181Z,58.14
2019-01-24T11:13:39.647Z,59.38
2019-01-24T11:17:24.326Z,60.19
2019-01-24T11:21:02.145Z,60.07
2019-01-24T11:28:37.026Z,59.13
2019-01-24T11:32:21.691Z,58.61
2019-01-24T11:36:06.606Z,59.76
2019-01-24T11:39:51.278Z,58.65
2019-01-24T11:43:35.963Z,60.58
2019-01-24T11:47:20.876Z,59.30
2019-01-24T11:51:05.567Z,59.15
2019-01-24T11:54:50.526Z,57.55
2019-01-24T11:58:16.107Z,58.72
2019-01-24T12:02:00.721Z,57.71
2019-01-24T12:05:46.199Z,57.13
2019-01-24T12:09:30.848Z,56.71
2019-01-24T12:13:09.008Z,57.69
2019-01-24T12:16:53.663Z,58.49
2019-01-24T12:24:42.574Z,57.30
2019-01-24T12:28:27.209Z,58.15
2019-01-24T12:32:11.874Z,57.55
2019-01-24T12:35:56.481Z,56.87
2019-01-24T12:39:41.141Z,58.72
2019-01-24T12:43:26.041Z,58.13
2019-01-24T12:47:10.686Z,56.99
2019-01-24T12:50:55.301Z,56.64
2019-01-24T12:54:39.975Z,56.55
2019-01-24T12:58:17.675Z,56.49
2019-01-24T13:02:02.310Z,58.06
2019-01-24T13:05:46.938Z,57.75
2019-01-24T13:09:32.320Z,58.04
2019-01-24T13:13:17.520Z,58.96
2019-01-24T13:17:02.152Z,57.16
2019-01-24T13:20:46.788Z,57.78
2019-01-24T13:24:31.400Z,58.87
2019-01-24T13:28:16.399Z,57.03
2019-01-24T13:36:04.534Z,58.18
2019-01-24T13:39:49.195Z,58.14
2019-01-24T13:43:33.803Z,59.04
2019-01-24T13:47:18.676Z,58.43
2019-01-24T13:51:03.305Z,59.28
2019-01-24T13:54:48.214Z,58.90
2019-01-24T13:58:25.486Z,57.83
2019-01-24T14:02:10.098Z,58.91
2019-01-24T14:05:55.142Z,59.33
2019-01-24T14:09:39.795Z,58.84
2019-01-24T14:13:24.458Z,58.97
2019-01-24T14:17:09.110Z,57.78
2019-01-24T14:20:53.745Z,58.78
2019-01-24T14:24:38.759Z,58.23
2019-01-24T14:28:23.368Z,58.11
2019-01-24T14:32:08.137Z,58.08
2019-01-24T14:35:52.876Z,58.20
2019-01-24T14:39:37.494Z,58.10
2019-01-24T14:43:03.609Z,56.90
2019-01-24T14:46:29.182Z,57.22
2019-01-24T14:49:54.755Z,57.23
2019-01-24T14:53:20.590Z,58.32
2019-01-24T14:57:05.312Z,58.38
2019-01-24T15:00:44.817Z,59.37
2019-01-24T15:04:29.714Z,57.58
2019-01-24T15:08:14.917Z,58.18
2019-01-24T15:11:59.642Z,58.78
2019-01-24T15:15:44.255Z,58.78
2019-01-24T15:19:28.899Z,58.40
2019-01-24T15:23:13.499Z,57.96
2019-01-24T15:26:58.143Z,58.75
2019-01-24T15:30:42.798Z,59.53
2019-01-24T15:34:27.472Z,59.37
2019-01-24T15:38:12.496Z,59.38
2019-01-24T15:41:57.124Z,59.81
2019-01-24T15:45:41.787Z,60.43
2019-01-24T15:49:26.398Z,60.77
2019-01-24T15:53:11.035Z,61.57
2019-01-24T15:56:55.846Z,61.13
2019-01-24T16:00:40.708Z,60.49
2019-01-24T16:04:25.380Z,60.60
2019-01-24T16:08:10.064Z,60.55
2019-01-24T16:11:54.664Z,60.95
2019-01-24T16:15:39.288Z,60.58
2019-01-24T16:19:23.934Z,59.87
2019-01-24T16:23:08.611Z,61.57
2019-01-24T16:26:53.244Z,61.35
2019-01-24T16:34:41.856Z,60.69
2019-01-24T16:38:26.657Z,61.23
2019-01-24T16:42:11.278Z,60.80
2019-01-24T16:45:55.865Z,61.04
2019-01-24T16:49:40.511Z,61.52
2019-01-24T16:53:25.191Z,61.57
2019-01-24T16:57:11.209Z,62.26
2019-01-24T17:01:34.608Z,62.01
2019-01-24T17:05:19.506Z,61.23
2019-01-24T17:13:14.790Z,61.97
2019-01-24T17:21:02.913Z,62.91
2019-01-24T17:24:47.290Z,61.57
2019-01-24T17:28:31.920Z,62.08
2019-01-24T17:32:16.591Z,62.16
2019-01-24T17:35:53.798Z,61.86
2019-01-24T17:39:38.422Z,61.62
2019-01-24T17:43:23.186Z,60.97
2019-01-24T17:51:11.289Z,61.53
2019-01-24T17:54:55.885Z,62.39
2019-01-24T17:58:40.528Z,61.40
2019-01-24T18:02:25.120Z,62.07
2019-01-24T18:06:29.273Z,61.25
2019-01-24T18:10:33.989Z,60.57
2019-01-24T18:14:18.613Z,59.85
2019-01-24T18:18:23.801Z,61.31
2019-01-24T18:22:08.411Z,60.67
2019-01-24T18:25:53.004Z,58.52
2019-01-24T18:29:37.635Z,59.39
2019-01-24T18:33:14.480Z,61.20
2019-01-24T18:36:59.164Z,60.47
2019-01-24T18:40:43.813Z,59.93
2019-01-24T18:44:28.418Z,59.86
2019-01-24T18:48:13.116Z,60.11
2019-01-24T18:51:57.724Z,59.20
2019-01-24T18:59:39.844Z,60.44
2019-01-24T19:03:24.495Z,61.04
2019-01-24T19:07:09.226Z,62.23
2019-01-24T19:10:54.283Z,61.23
2019-01-24T19:14:38.934Z,59.50
2019-01-24T19:18:23.558Z,60.56
2019-01-24T19:22:08.519Z,61.46
2019-01-24T19:25:53.712Z,61.97
2019-01-24T19:29:38.297Z,62.12
2019-01-24T19:33:15.534Z,62.25
2019-01-24T19:37:00.167Z,62.33
2019-01-24T19:40:44.763Z,62.82
2019-01-24T19:44:15.652Z,62.43
2019-01-24T19:47:56.686Z,62.72
2019-01-24T19:51:41.295Z,61.90
2019-01-24T19:55:25.986Z,62.94
2019-01-24T19:59:10.585Z,62.72
2019-01-24T20:02:55.228Z,63.84
2019-01-24T20:06:39.834Z,64.29
2019-01-24T20:11:04.559Z,63.79
2019-01-24T20:14:49.132Z,63.99
2019-01-24T20:18:33.777Z,64.99
2019-01-24T20:22:18.445Z,64.53
2019-01-24T20:26:03.076Z,64.18
2019-01-24T20:29:47.728Z,64.40
2019-01-24T20:33:32.359Z,63.65
2019-01-24T20:37:09.570Z,64.23
2019-01-24T20:40:54.198Z,64.49
2019-01-24T20:48:30.383Z,64.33
2019-01-24T20:52:15.091Z,64.08
2019-01-24T20:55:59.748Z,64.58
2019-01-24T21:00:03.529Z,63.86
2019-01-24T21:03:55.121Z,64.59
2019-01-24T21:07:35.289Z,64.60
2019-01-24T21:11:20.042Z,64.67
2019-01-24T21:19:09.285Z,63.87
2019-01-24T21:22:53.915Z,64.34
2019-01-24T21:26:38.578Z,64.42
2019-01-24T21:30:28.722Z,63.99
2019-01-24T21:34:06.239Z,64.10
2019-01-24T21:37:50.991Z,63.47
2019-01-24T21:41:35.674Z,64.28
2019-01-24T21:45:40.584Z,64.60
2019-01-24T21:49:25.241Z,63.71
2019-01-24T21:53:10.130Z,64.36
2019-01-24T21:56:54.809Z,64.07
2019-01-24T22:00:39.491Z,64.26
2019-01-24T22:04:24.135Z,64.26
2019-01-24T22:08:08.822Z,64.48
2019-01-24T22:11:53.451Z,63.57
2019-01-24T22:15:38.102Z,64.52
2019-01-24T22:19:22.728Z,63.49
2019-01-24T22:23:07.658Z,64.67
2019-01-24T22:26:52.327Z,64.68
2019-01-24T22:30:42.421Z,65.25
2019-01-24T22:34:21.244Z,64.04
2019-01-24T22:38:06.645Z,63.74
2019-01-24T22:41:51.305Z,64.13
2019-01-24T22:45:35.992Z,64.63
2019-01-24T22:49:20.653Z,63.15
2019-01-24T22:53:05.317Z,64.21
2019-01-24T22:56:49.966Z,64.77
2019-01-24T23:01:13.148Z,64.80
2019-01-24T23:04:57.753Z,64.33
2019-01-24T23:08:42.536Z,65.49
2019-01-24T23:12:27.204Z,64.49
2019-01-24T23:16:11.969Z,65.73
2019-01-24T23:19:56.633Z,65.01
2019-01-24T23:23:41.255Z,66.05
2019-01-24T23:27:26.256Z,65.52
2019-01-24T23:31:10.874Z,64.95
2019-01-24T23:34:55.506Z,65.50
2019-01-24T23:38:40.165Z,65.95
2019-01-24T23:42:25.090Z,65.62
2019-01-24T23:46:09.862Z,65.77
2019-01-24T23:49:54.517Z,65.93
2019-01-24T23:53:39.143Z,65.48
2019-01-24T23:57:24.116Z,65.29
